createdAt,value
2018-09-15T00:02:27.000Z,15.30
2018-09-15T00:04:57.238Z,15.30
2018-09-15T00:07:27.443Z,15.30
2018-09-15T00:09:57.571Z,15.30
2018-09-15T00:12:28.504Z,15.30
2018-09-15T00:14:59.063Z,15.30
2018-09-15T00:17:34.456Z,15.20
2018-09-15T00:20:05.400Z,15.30
2018-09-15T00:22:35.793Z,15.30
2018-09-15T00:25:07.043Z,15.30
2018-09-15T00:27:37.115Z,15.20
2018-09-15T00:30:08.145Z,15.30
2018-09-15T00:32:38.892Z,15.30
2018-09-15T00:35:09.551Z,15.40
2018-09-15T00:37:39.726Z,15.40
2018-09-15T00:40:10.491Z,15.30
2018-09-15T00:42:40.620Z,15.30
2018-09-15T00:45:10.822Z,15.40
2018-09-15T00:47:41.412Z,15.40
2018-09-15T00:50:11.568Z,15.40
2018-09-15T00:52:42.012Z,15.30
2018-09-15T00:55:12.488Z,15.30
2018-09-15T00:57:43.489Z,15.30
2018-09-15T01:00:13.686Z,15.30
2018-09-15T01:02:44.506Z,15.30
2018-09-15T01:05:14.621Z,15.30
2018-09-15T01:07:45.030Z,15.40
2018-09-15T01:10:15.614Z,15.40
2018-09-15T01:12:45.808Z,15.50
2018-09-15T01:15:16.009Z,15.50
2018-09-15T01:17:46.559Z,15.40
2018-09-15T01:20:17.190Z,15.30
2018-09-15T01:22:47.505Z,15.40
2018-09-15T01:25:18.025Z,15.30
2018-09-15T01:27:48.674Z,15.40
2018-09-15T01:30:19.187Z,15.40
2018-09-15T01:32:49.627Z,15.50
2018-09-15T01:35:20.136Z,15.50
2018-09-15T01:37:50.696Z,15.60
2018-09-15T01:40:21.194Z,15.60
2018-09-15T01:42:51.284Z,15.50
2018-09-15T01:45:21.855Z,15.50
2018-09-15T01:47:52.331Z,15.50
2018-09-15T01:50:22.386Z,15.50
2018-09-15T01:52:52.576Z,15.50
2018-09-15T01:55:23.613Z,15.40
2018-09-15T01:57:53.629Z,15.40
2018-09-15T02:00:23.996Z,15.40
2018-09-15T02:02:54.635Z,15.40
2018-09-15T02:05:24.809Z,15.40
2018-09-15T02:07:55.502Z,15.40
2018-09-15T02:10:25.569Z,15.40
2018-09-15T02:12:56.139Z,15.40
2018-09-15T02:15:26.808Z,15.40
2018-09-15T02:17:56.894Z,15.40
2018-09-15T02:20:27.018Z,15.30
2018-09-15T02:22:57.313Z,15.30
2018-09-15T02:25:27.737Z,15.30
2018-09-15T02:27:58.375Z,15.30
2018-09-15T02:30:28.490Z,15.20
2018-09-15T02:32:58.565Z,15.20
2018-09-15T02:35:28.706Z,15.30
2018-09-15T02:37:59.242Z,15.20
2018-09-15T02:40:29.824Z,15.30
2018-09-15T02:42:59.900Z,15.20
2018-09-15T02:45:30.580Z,15.30
2018-09-15T02:48:00.881Z,15.30
2018-09-15T02:50:31.476Z,15.30
2018-09-15T02:53:01.580Z,15.30
2018-09-15T02:55:31.911Z,15.40
2018-09-15T02:58:03.242Z,15.40
2018-09-15T03:00:34.294Z,15.40
2018-09-15T03:03:04.439Z,15.50
2018-09-15T03:05:34.579Z,15.50
2018-09-15T03:08:05.029Z,15.40
2018-09-15T03:10:35.580Z,15.40
2018-09-15T03:13:06.505Z,15.20
2018-09-15T03:15:37.197Z,15.20
2018-09-15T03:18:07.849Z,15.10
2018-09-15T03:20:38.462Z,15.10
2018-09-15T03:23:08.562Z,15.20
2018-09-15T03:25:38.790Z,15.20
2018-09-15T03:28:10.059Z,15.20
2018-09-15T03:30:40.184Z,15.20
2018-09-15T03:33:10.328Z,15.20
2018-09-15T03:35:40.793Z,15.10
2018-09-15T03:38:12.074Z,15.20
2018-09-15T03:40:42.134Z,15.10
2018-09-15T03:43:12.191Z,15.10
2018-09-15T03:45:42.307Z,15.10
2018-09-15T03:48:12.419Z,15.10
2018-09-15T03:50:43.158Z,15.10
2018-09-15T03:53:13.333Z,15.10
2018-09-15T03:55:43.802Z,15.20
2018-09-15T03:58:14.140Z,15.30
2018-09-15T04:00:44.678Z,15.30
2018-09-15T04:03:15.259Z,15.30
2018-09-15T04:05:45.381Z,15.20
2018-09-15T04:08:15.491Z,15.20
2018-09-15T04:10:45.882Z,15.20
2018-09-15T04:13:16.278Z,15.30
2018-09-15T04:15:46.430Z,15.40
2018-09-15T04:18:17.670Z,15.40
2018-09-15T04:20:48.817Z,15.40
2018-09-15T04:23:19.241Z,15.40
2018-09-15T04:25:49.638Z,15.40
2018-09-15T04:28:20.353Z,15.30
2018-09-15T04:30:50.961Z,15.30
2018-09-15T04:33:21.001Z,15.20
2018-09-15T04:35:51.977Z,15.20
2018-09-15T04:38:22.289Z,15.10
2018-09-15T04:40:52.756Z,15.10
2018-09-15T04:43:22.807Z,15.10
2018-09-15T04:45:52.981Z,15.20
2018-09-15T04:48:23.343Z,15.20
2018-09-15T04:50:53.387Z,15.20
2018-09-15T04:53:23.790Z,15.20
2018-09-15T04:55:54.438Z,15.30
2018-09-15T04:58:24.587Z,15.30
2018-09-15T05:00:54.891Z,15.30
2018-09-15T05:03:25.137Z,15.20
2018-09-15T05:05:55.463Z,15.20
2018-09-15T05:08:25.787Z,15.20
2018-09-15T05:10:55.879Z,15.20
2018-09-15T05:13:25.957Z,15.20
2018-09-15T05:15:56.503Z,15.10
2018-09-15T05:18:26.547Z,15.10
2018-09-15T05:20:57.120Z,15.10
2018-09-15T05:23:27.386Z,15.20
2018-09-15T05:25:58.071Z,15.20
2018-09-15T05:28:28.135Z,15.20
2018-09-15T05:30:58.699Z,15.20
2018-09-15T05:33:28.859Z,15.20
2018-09-15T05:35:59.506Z,15.30
2018-09-15T05:38:29.979Z,15.30
2018-09-15T05:40:59.985Z,15.30
2018-09-15T05:43:30.540Z,15.40
2018-09-15T05:46:01.157Z,15.40
2018-09-15T05:48:31.580Z,15.40
2018-09-15T05:51:01.763Z,15.40
2018-09-15T05:53:31.794Z,15.40
2018-09-15T05:56:03.022Z,15.40
2018-09-15T05:58:33.060Z,15.40
2018-09-15T06:01:03.847Z,15.40
2018-09-15T06:03:33.806Z,15.40
2018-09-15T06:06:04.679Z,15.30
2018-09-15T06:08:34.901Z,15.30
2018-09-15T06:11:05.931Z,15.30
2018-09-15T06:13:36.308Z,15.40
2018-09-15T06:16:06.578Z,15.50
2018-09-15T06:18:36.675Z,15.50
2018-09-15T06:21:06.967Z,15.60
2018-09-15T06:23:37.687Z,15.70
2018-09-15T06:26:08.318Z,15.80
2018-09-15T06:28:38.758Z,15.90
2018-09-15T06:31:09.256Z,16.00
2018-09-15T06:33:39.956Z,16.10
2018-09-15T06:36:10.720Z,16.20
2018-09-15T06:38:41.253Z,16.20
2018-09-15T06:41:11.921Z,16.20
2018-09-15T06:43:42.438Z,16.20
2018-09-15T06:46:12.598Z,16.30
2018-09-15T06:48:43.599Z,16.30
2018-09-15T06:51:14.183Z,16.40
2018-09-15T06:53:45.339Z,16.40
2018-09-15T06:56:16.189Z,16.50
2018-09-15T06:58:46.230Z,16.60
2018-09-15T07:01:16.815Z,16.60
2018-09-15T07:03:46.856Z,16.70
2018-09-15T07:06:17.363Z,16.80
2018-09-15T07:08:47.404Z,16.90
2018-09-15T07:11:17.453Z,16.90
2018-09-15T07:13:47.621Z,17.00
2018-09-15T07:16:18.455Z,17.00
2018-09-15T07:18:48.846Z,17.10
2018-09-15T07:21:19.418Z,17.20
2018-09-15T07:23:49.583Z,17.30
2018-09-15T07:26:20.180Z,17.40
2018-09-15T07:28:51.105Z,17.50
2018-09-15T07:31:21.205Z,17.60
2018-09-15T07:33:51.714Z,17.60
2018-09-15T07:36:21.754Z,17.70
2018-09-15T07:38:52.534Z,17.70
2018-09-15T07:41:23.515Z,17.80
2018-09-15T07:43:53.632Z,17.90
2018-09-15T07:46:24.188Z,18.00
2018-09-15T07:48:54.250Z,18.00
2018-09-15T07:51:24.318Z,18.00
2018-09-15T07:53:54.892Z,18.00
2018-09-15T07:56:25.530Z,18.10
2018-09-15T07:58:56.124Z,18.10
2018-09-15T08:01:26.257Z,18.20
2018-09-15T08:03:56.604Z,18.30
2018-09-15T08:06:26.681Z,18.40
2018-09-15T08:08:57.477Z,18.50
2018-09-15T08:11:27.516Z,18.60
2018-09-15T08:13:57.672Z,18.70
2018-09-15T08:16:28.197Z,18.80
2018-09-15T08:18:59.625Z,18.80
2018-09-15T08:21:29.642Z,18.80
2018-09-15T08:23:59.742Z,19.00
2018-09-15T08:26:30.303Z,19.10
2018-09-15T08:29:00.464Z,19.10
2018-09-15T08:31:30.807Z,19.10
2018-09-15T08:34:01.172Z,19.20
2018-09-15T08:36:31.243Z,19.30
2018-09-15T08:39:01.330Z,19.40
2018-09-15T08:41:31.505Z,19.40
2018-09-15T08:44:02.163Z,19.30
2018-09-15T08:46:32.498Z,19.10
2018-09-15T08:49:02.623Z,19.20
2018-09-15T08:51:33.218Z,19.20
2018-09-15T08:54:03.423Z,19.30
2018-09-15T08:56:34.137Z,19.40
2018-09-15T08:59:04.221Z,19.60
2018-09-15T09:01:34.684Z,19.70
2018-09-15T09:04:05.293Z,19.80
2018-09-15T09:06:35.437Z,19.80
2018-09-15T09:09:08.653Z,19.90
2018-09-15T09:11:38.680Z,19.80
2018-09-15T09:14:08.879Z,19.80
2018-09-15T09:16:39.806Z,19.90
2018-09-15T09:19:09.879Z,19.90
2018-09-15T09:21:39.973Z,19.90
2018-09-15T09:24:10.418Z,20.00
2018-09-15T09:26:41.119Z,20.10
2018-09-15T09:29:11.476Z,20.30
2018-09-15T09:31:41.806Z,20.40
2018-09-15T09:34:11.960Z,20.40
2018-09-15T09:36:42.056Z,20.50
2018-09-15T09:39:13.498Z,20.70
2018-09-15T09:41:44.187Z,20.90
2018-09-15T09:44:14.325Z,21.00
2018-09-15T09:46:44.406Z,21.00
2018-09-15T09:49:15.051Z,20.70
2018-09-15T09:51:45.129Z,20.60
2018-09-15T09:54:15.161Z,20.70
2018-09-15T09:56:45.822Z,20.90
2018-09-15T09:59:16.327Z,21.30
2018-09-15T10:01:51.905Z,21.80
2018-09-15T10:04:22.048Z,22.30
2018-09-15T10:06:52.428Z,22.50
2018-09-15T10:09:23.114Z,22.60
2018-09-15T10:11:53.383Z,22.20
2018-09-15T10:14:23.500Z,21.90
2018-09-15T10:16:54.881Z,21.70
2018-09-15T10:19:25.024Z,21.70
2018-09-15T10:21:55.478Z,21.80
2018-09-15T10:24:26.204Z,21.80
2018-09-15T10:26:56.429Z,21.90
2018-09-15T10:29:26.801Z,21.80
2018-09-15T10:31:56.991Z,21.70
2018-09-15T10:34:27.867Z,21.60
2018-09-15T10:36:57.942Z,21.60
2018-09-15T10:39:28.382Z,21.70
2018-09-15T10:41:58.460Z,22.00
2018-09-15T10:44:28.580Z,21.80
2018-09-15T10:46:59.562Z,21.80
2018-09-15T10:49:29.608Z,21.70
2018-09-15T10:52:00.126Z,21.70
2018-09-15T10:54:30.131Z,21.60
2018-09-15T10:57:01.072Z,21.50
2018-09-15T10:59:31.147Z,21.40
2018-09-15T11:02:01.347Z,21.20
2018-09-15T11:04:31.431Z,21.20
2018-09-15T11:07:02.013Z,21.20
2018-09-15T11:09:32.213Z,21.20
2018-09-15T11:12:03.232Z,21.40
2018-09-15T11:14:34.084Z,21.50
2018-09-15T11:17:05.032Z,21.60
2018-09-15T11:19:35.082Z,21.80
2018-09-15T11:22:06.058Z,22.00
2018-09-15T11:24:36.122Z,22.10
2018-09-15T11:27:06.445Z,22.20
2018-09-15T11:29:36.524Z,22.50
2018-09-15T11:32:06.673Z,22.70
2018-09-15T11:34:37.235Z,22.90
2018-09-15T11:37:07.254Z,23.40
2018-09-15T11:39:37.340Z,24.10
2018-09-15T11:42:07.890Z,24.80
2018-09-15T11:44:38.004Z,25.30
2018-09-15T11:47:09.088Z,25.20
2018-09-15T11:49:39.514Z,24.90
2018-09-15T11:52:09.635Z,24.60
2018-09-15T11:54:40.311Z,24.10
2018-09-15T11:57:10.407Z,23.60
2018-09-15T11:59:40.827Z,23.40
2018-09-15T12:02:11.145Z,23.30
2018-09-15T12:04:41.201Z,23.40
2018-09-15T12:07:11.801Z,23.30
2018-09-15T12:09:41.935Z,23.30
2018-09-15T12:12:12.421Z,23.30
2018-09-15T12:14:42.809Z,23.30
2018-09-15T12:17:12.911Z,23.30
2018-09-15T12:19:43.730Z,23.40
2018-09-15T12:22:14.177Z,23.30
2018-09-15T12:24:44.305Z,23.30
2018-09-15T12:27:14.260Z,23.30
2018-09-15T12:29:44.473Z,23.40
2018-09-15T12:32:15.030Z,23.30
2018-09-15T12:34:45.065Z,23.60
2018-09-15T12:37:15.079Z,24.10
2018-09-15T12:39:45.141Z,24.60
2018-09-15T12:42:16.039Z,25.10
2018-09-15T12:44:46.015Z,25.40
2018-09-15T12:47:16.698Z,25.60
2018-09-15T12:49:46.683Z,25.70
2018-09-15T12:52:16.847Z,25.80
2018-09-15T12:54:46.806Z,25.90
2018-09-15T12:57:16.932Z,26.10
2018-09-15T12:59:46.965Z,26.00
2018-09-15T13:02:17.141Z,25.50
2018-09-15T13:04:47.683Z,24.80
2018-09-15T13:07:18.372Z,24.60
2018-09-15T13:09:48.752Z,24.40
2018-09-15T13:12:18.849Z,24.20
2018-09-15T13:14:48.887Z,24.00
2018-09-15T13:17:18.962Z,23.70
2018-09-15T13:19:48.984Z,23.70
2018-09-15T13:22:19.578Z,23.50
2018-09-15T13:24:50.604Z,23.20
2018-09-15T13:27:21.211Z,23.00
2018-09-15T13:29:51.529Z,23.10
2018-09-15T13:32:21.506Z,23.30
2018-09-15T13:34:51.590Z,23.60
2018-09-15T13:37:22.144Z,23.70
2018-09-15T13:39:52.445Z,23.60
2018-09-15T13:42:22.604Z,23.50
2018-09-15T13:44:53.125Z,23.40
2018-09-15T13:47:23.572Z,23.40
2018-09-15T13:49:53.766Z,23.30
2018-09-15T13:52:24.434Z,23.00
2018-09-15T13:54:55.284Z,22.70
2018-09-15T13:57:26.394Z,22.50
2018-09-15T13:59:56.400Z,22.40
2018-09-15T14:02:26.497Z,22.20
2018-09-15T14:04:57.355Z,22.20
2018-09-15T14:07:27.377Z,22.30
2018-09-15T14:09:58.021Z,22.50
2018-09-15T14:12:28.102Z,22.70
2018-09-15T14:14:58.510Z,23.00
2018-09-15T14:17:40.912Z,23.20
2018-09-15T14:20:11.065Z,23.10
2018-09-15T14:22:41.208Z,22.90
2018-09-15T14:25:11.204Z,22.70
2018-09-15T14:27:41.237Z,22.60
2018-09-15T14:30:11.415Z,22.50
2018-09-15T14:32:41.868Z,22.40
2018-09-15T14:35:11.919Z,22.40
2018-09-15T14:37:42.182Z,22.40
2018-09-15T14:40:12.360Z,22.40
2018-09-15T14:42:42.434Z,22.40
2018-09-15T14:45:12.647Z,22.60
2018-09-15T14:47:42.621Z,22.60
2018-09-15T14:50:12.811Z,22.70
2018-09-15T14:52:43.484Z,22.50
2018-09-15T14:55:14.078Z,22.30
2018-09-15T14:57:44.132Z,22.20
2018-09-15T15:00:14.229Z,22.20
2018-09-15T15:02:44.502Z,22.20
2018-09-15T15:05:14.583Z,22.30
2018-09-15T15:07:45.741Z,22.30
2018-09-15T15:10:15.750Z,22.40
2018-09-15T15:12:46.198Z,22.40
2018-09-15T15:15:16.251Z,22.20
2018-09-15T15:17:46.225Z,22.20
2018-09-15T15:20:16.285Z,22.20
2018-09-15T15:22:46.418Z,22.10
2018-09-15T15:25:16.540Z,22.00
2018-09-15T15:27:47.148Z,22.00
2018-09-15T15:30:17.680Z,21.90
2018-09-15T15:32:48.741Z,21.90
2018-09-15T15:35:18.865Z,21.90
2018-09-15T15:37:49.992Z,21.90
2018-09-15T15:40:20.638Z,22.00
2018-09-15T15:42:50.807Z,22.10
2018-09-15T15:45:20.928Z,22.10
2018-09-15T15:47:51.123Z,22.10
2018-09-15T15:50:21.200Z,22.10
2018-09-15T15:52:51.945Z,22.00
2018-09-15T15:55:22.306Z,21.90
2018-09-15T15:57:52.358Z,21.70
2018-09-15T16:00:23.097Z,21.60
2018-09-15T16:02:53.263Z,21.50
2018-09-15T16:05:23.254Z,21.40
2018-09-15T16:07:53.630Z,21.20
2018-09-15T16:10:24.200Z,21.10
2018-09-15T16:12:55.031Z,21.00
2018-09-15T16:15:25.471Z,20.90
2018-09-15T16:17:56.002Z,20.80
2018-09-15T16:20:26.490Z,20.80
2018-09-15T16:22:56.935Z,20.70
2018-09-15T16:25:27.452Z,20.70
2018-09-15T16:27:58.061Z,20.60
2018-09-15T16:30:28.041Z,20.50
2018-09-15T16:32:58.332Z,20.50
2018-09-15T16:35:28.868Z,20.30
2018-09-15T16:37:59.292Z,20.30
2018-09-15T16:40:29.291Z,20.20
2018-09-15T16:42:59.933Z,20.10
2018-09-15T16:45:30.551Z,20.00
2018-09-15T16:48:00.697Z,19.90
2018-09-15T16:50:30.770Z,19.80
2018-09-15T16:53:01.171Z,19.80
2018-09-15T16:55:31.660Z,19.80
2018-09-15T16:58:02.275Z,19.70
2018-09-15T17:00:32.327Z,19.60
2018-09-15T17:03:03.388Z,19.60
2018-09-15T17:05:33.527Z,19.50
2018-09-15T17:08:03.988Z,19.50
2018-09-15T17:10:34.087Z,19.30
2018-09-15T17:13:04.130Z,19.30
2018-09-15T17:15:35.067Z,19.20
2018-09-15T17:18:05.171Z,19.10
2018-09-15T17:20:35.313Z,18.90
2018-09-15T17:23:05.385Z,18.80
2018-09-15T17:25:35.396Z,18.70
2018-09-15T17:28:05.416Z,18.50
2018-09-15T17:30:35.442Z,18.40
2018-09-15T17:33:05.527Z,18.30
2018-09-15T17:35:36.171Z,18.20
2018-09-15T17:38:06.660Z,18.20
2018-09-15T17:40:36.712Z,18.10
2018-09-15T17:43:06.887Z,17.90
2018-09-15T17:45:37.444Z,17.80
2018-09-15T17:48:07.638Z,17.60
2018-09-15T17:50:38.172Z,17.50
2018-09-15T17:53:08.387Z,17.40
2018-09-15T17:55:38.409Z,17.30
2018-09-15T17:58:08.527Z,17.20
2018-09-15T18:00:39.037Z,17.10
2018-09-15T18:03:09.153Z,17.10
2018-09-15T18:05:39.216Z,16.90
2018-09-15T18:08:09.593Z,16.90
2018-09-15T18:10:39.783Z,16.70
2018-09-15T18:13:09.958Z,16.60
2018-09-15T18:15:40.686Z,16.50
2018-09-15T18:18:11.534Z,16.40
2018-09-15T18:20:41.678Z,16.40
2018-09-15T18:23:11.708Z,16.30
2018-09-15T18:25:41.883Z,16.20
2018-09-15T18:28:12.066Z,16.20
2018-09-15T18:30:42.593Z,16.00
2018-09-15T18:33:12.750Z,15.90
2018-09-15T18:35:43.197Z,15.80
2018-09-15T18:38:13.263Z,15.70
2018-09-15T18:40:43.308Z,15.60
2018-09-15T18:43:13.462Z,15.50
2018-09-15T18:45:43.539Z,15.50
2018-09-15T18:48:13.626Z,15.40
2018-09-15T18:50:43.738Z,15.30
2018-09-15T18:53:13.851Z,15.20
2018-09-15T18:55:44.400Z,15.10
2018-09-15T18:58:14.543Z,15.00
2018-09-15T19:00:45.100Z,15.00
2018-09-15T19:03:16.416Z,15.00
2018-09-15T19:05:47.417Z,14.90
2018-09-15T19:08:17.495Z,14.80
2018-09-15T19:10:47.541Z,14.80
2018-09-15T19:13:17.531Z,14.80
2018-09-15T19:15:47.934Z,14.80
2018-09-15T19:18:18.500Z,14.70
2018-09-15T19:20:49.127Z,14.70
2018-09-15T19:23:19.226Z,14.70
2018-09-15T19:25:49.805Z,14.60
2018-09-15T19:28:20.593Z,14.60
2018-09-15T19:30:51.750Z,14.50
2018-09-15T19:33:22.236Z,14.30
2018-09-15T19:35:52.314Z,14.20
2018-09-15T19:38:22.385Z,14.10
2018-09-15T19:40:52.534Z,14.00
2018-09-15T19:43:23.157Z,13.90
2018-09-15T19:45:53.163Z,13.80
2018-09-15T19:48:23.934Z,13.80
2018-09-15T19:50:53.909Z,13.70
2018-09-15T19:53:24.334Z,13.50
2018-09-15T19:55:54.870Z,13.50
2018-09-15T19:58:25.197Z,13.50
2018-09-15T20:00:55.369Z,13.40
2018-09-15T20:03:25.552Z,13.40
2018-09-15T20:05:56.121Z,13.30
2018-09-15T20:08:26.590Z,13.20
2018-09-15T20:10:56.952Z,13.20
2018-09-15T20:13:27.068Z,13.10
2018-09-15T20:15:55.558Z,13.00
2018-09-15T20:18:24.026Z,13.00
2018-09-15T20:20:52.480Z,12.90
2018-09-15T20:23:22.550Z,12.80
2018-09-15T20:25:52.974Z,12.80
2018-09-15T20:28:23.471Z,12.70
2018-09-15T20:30:53.470Z,12.70
2018-09-15T20:33:23.605Z,12.60
2018-09-15T20:35:54.046Z,12.60
2018-09-15T20:38:24.140Z,12.50
2018-09-15T20:40:54.794Z,12.40
2018-09-15T20:43:25.534Z,12.40
2018-09-15T20:45:56.783Z,12.30
2018-09-15T20:48:26.855Z,12.30
2018-09-15T20:50:56.936Z,12.20
2018-09-15T20:53:27.035Z,12.30
2018-09-15T20:55:57.621Z,12.30
2018-09-15T20:58:28.523Z,12.30
2018-09-15T21:00:58.643Z,12.20
2018-09-15T21:03:28.745Z,12.20
2018-09-15T21:05:58.814Z,12.10
2018-09-15T21:08:29.262Z,12.10
2018-09-15T21:10:59.392Z,12.00
2018-09-15T21:13:29.472Z,11.90
2018-09-15T21:16:00.231Z,11.80
2018-09-15T21:18:30.846Z,11.80
2018-09-15T21:21:00.938Z,11.70
2018-09-15T21:23:31.184Z,11.60
2018-09-15T21:26:01.244Z,11.60
2018-09-15T21:28:31.267Z,11.60
2018-09-15T21:31:01.438Z,11.50
2018-09-15T21:33:32.525Z,11.40
2018-09-15T21:36:02.961Z,11.40
2018-09-15T21:38:33.474Z,11.40
2018-09-15T21:41:04.485Z,11.30
2018-09-15T21:43:35.209Z,11.20
2018-09-15T21:46:06.438Z,11.20
2018-09-15T21:48:36.508Z,11.20
2018-09-15T21:51:07.079Z,11.10
2018-09-15T21:53:37.208Z,11.10
2018-09-15T21:56:07.559Z,11.00
2018-09-15T21:58:38.181Z,11.00
2018-09-15T22:01:09.467Z,10.90
2018-09-15T22:03:45.007Z,10.90
2018-09-15T22:06:15.084Z,10.90
2018-09-15T22:08:45.242Z,10.80
2018-09-15T22:11:15.863Z,10.80
2018-09-15T22:13:45.864Z,10.70
2018-09-15T22:16:16.010Z,10.70
2018-09-15T22:18:46.363Z,10.70
2018-09-15T22:21:16.525Z,10.60
2018-09-15T22:23:46.472Z,10.60
2018-09-15T22:26:17.101Z,10.60
2018-09-15T22:28:47.823Z,10.50
2018-09-15T22:31:18.557Z,10.50
2018-09-15T22:33:48.623Z,10.60
2018-09-15T22:36:19.617Z,10.60
2018-09-15T22:38:49.639Z,10.60
2018-09-15T22:41:19.747Z,10.50
2018-09-15T22:43:50.047Z,10.50
2018-09-15T22:46:20.588Z,10.50
2018-09-15T22:48:50.829Z,10.60
2018-09-15T22:51:22.161Z,10.60
2018-09-15T22:53:52.854Z,10.50
2018-09-15T22:56:22.903Z,10.50
2018-09-15T22:58:53.071Z,10.50
2018-09-15T23:01:23.841Z,10.40
2018-09-15T23:04:02.869Z,10.30
2018-09-15T23:06:34.037Z,10.30
2018-09-15T23:09:05.570Z,10.20
2018-09-15T23:11:36.238Z,10.20
2018-09-15T23:14:06.333Z,10.10
2018-09-15T23:16:36.531Z,10.10
2018-09-15T23:19:07.175Z,10.00
2018-09-15T23:21:37.229Z,10.00
2018-09-15T23:24:07.479Z,10.00
2018-09-15T23:26:37.574Z,10.00
2018-09-15T23:29:07.651Z,9.90
2018-09-15T23:31:38.214Z,9.80
2018-09-15T23:34:08.364Z,9.80
2018-09-15T23:36:38.508Z,9.80
2018-09-15T23:39:09.610Z,9.80
2018-09-15T23:41:39.854Z,9.80
2018-09-15T23:44:09.965Z,9.70
2018-09-15T23:46:40.037Z,9.70
2018-09-15T23:49:10.705Z,9.70
2018-09-15T23:51:41.301Z,9.60
2018-09-15T23:54:11.361Z,9.60
2018-09-15T23:56:41.452Z,9.50
2018-09-15T23:59:11.541Z,9.40
